Terminal Aerodrome Forecast
Issued by NWS Wichita, KS

Home | Current Version | Previous Version | Text Only | Print | Product List | Glossary On
Versions: 1 2 3 4 5 6 7 8 9 10 11 12 13 14 15 16 17 18 19 20 21 22 23 24 25 26 27 28
000
FTUS43 KICT 200404 AAA
TAFICT
TAF AMD
KICT 200404Z 2004/2024 03011KT 5SM -FZDZ VCTS SCT006 OVC009CB
      WS020/19035KT
     FM201400 36016G23KT P6SM SCT015 OVC025=

USA.gov is the U.S. government's official web portal to all federal, state and local government web resources and services.